Time;durP1;ratioP1;P1;durP2;ratioP2;P2;SDS_P1;SDS_P2;PMS_P1;PMS_P2;Temp;Humidity;BMP_temperature;BMP_pressure;BME280_temperature;BME280_humidity;BME280_pressure;Samples;Min_cycle;Max_cycle;Signal;HPM_P1;HPM_P2
2022/02/02 00:02:34;;;;;;;5.30;2.60;;;;;;;;;;4950606;28;20503;-68
2022/02/02 00:08:00;;;;;;;7.53;3.28;;;;;;;;;;4929100;28;20452;-67
2022/02/02 00:16:12;;;;;;;7.75;2.90;;;;;;;;;;4934434;28;20591;-68
2022/02/02 00:21:28;;;;;;;4.50;2.33;;;;;;;;;;4935108;28;20564;-67
2022/02/02 00:23:59;;;;;;;6.15;2.67;;;;;;;;;;4950705;28;20464;-67
2022/02/02 00:26:32;;;;;;;6.88;2.67;;;;;;;;;;4933197;28;20392;-67
2022/02/02 00:29:05;;;;;;;5.47;2.60;;;;;;;;;;4949806;28;20084;-68
2022/02/02 00:31:37;;;;;;;8.40;2.63;;;;;;;;;;4950231;28;20348;-67
2022/02/02 00:34:07;;;;;;;7.72;3.08;;;;;;;;;;4933852;28;20520;-67
2022/02/02 00:36:42;;;;;;;5.90;2.15;;;;;;;;;;4950391;28;20425;-68
2022/02/02 00:39:07;;;;;;;6.53;2.58;;;;;;;;;;4950107;28;20042;-67
2022/02/02 00:41:33;;;;;;;4.80;2.13;;;;;;;;;;4950117;28;20444;-67
2022/02/02 00:44:00;;;;;;;4.10;2.15;;;;;;;;;;4950762;28;20468;-68
2022/02/02 00:46:28;;;;;;;3.38;1.63;;;;;;;;;;4950345;28;20026;-67
2022/02/02 00:48:59;;;;;;;6.03;2.40;;;;;;;;;;4932549;28;20380;-68
2022/02/02 00:51:36;;;;;;;4.47;2.38;;;;;;;;;;4964275;28;20313;-68
2022/02/02 00:54:03;;;;;;;7.30;1.95;;;;;;;;;;4950882;28;20309;-67
2022/02/02 00:56:28;;;;;;;4.65;2.20;;;;;;;;;;4951967;28;20327;-68
2022/02/02 00:58:53;;;;;;;5.30;2.47;;;;;;;;;;4950517;28;20033;-69
2022/02/02 01:01:19;;;;;;;4.40;1.92;;;;;;;;;;4938669;28;20443;-67
2022/02/02 01:03:44;;;;;;;4.88;2.30;;;;;;;;;;4935154;28;20391;-69
2022/02/02 01:06:14;;;;;;;3.92;2.10;;;;;;;;;;4969060;28;20497;-67
2022/02/02 01:17:14;;;;;;;7.97;2.53;;;;;;;;;;4969571;28;20477;-67
2022/02/02 01:19:37;;;;;;;4.68;2.30;;;;;;;;;;4969198;28;20525;-67
2022/02/02 01:30:07;;;;;;;3.90;1.98;;;;;;;;;;4953565;28;20416;-67
2022/02/02 01:32:33;;;;;;;5.15;1.88;;;;;;;;;;4951480;28;20494;-67
2022/02/02 01:34:58;;;;;;;5.05;1.80;;;;;;;;;;4969102;28;20428;-67
2022/02/02 01:37:25;;;;;;;3.97;2.38;;;;;;;;;;4951380;28;20440;-67
2022/02/02 01:39:58;;;;;;;3.63;1.85;;;;;;;;;;4972443;28;20451;-67
2022/02/02 01:42:26;;;;;;;3.92;2.15;;;;;;;;;;4972253;28;20060;-67
2022/02/02 01:45:01;;;;;;;3.50;2.20;;;;;;;;;;4955682;28;20699;-67
2022/02/02 01:47:33;;;;;;;5.53;2.13;;;;;;;;;;4972470;28;20025;-68
2022/02/02 01:55:05;;;;;;;2.97;1.67;;;;;;;;;;4956003;28;20042;-67
2022/02/02 02:00:12;;;;;;;3.65;1.42;;;;;;;;;;4973214;28;20352;-68
2022/02/02 02:02:37;;;;;;;7.03;1.95;;;;;;;;;;4954546;28;20426;-67
2022/02/02 02:05:04;;;;;;;4.53;1.80;;;;;;;;;;4954235;28;20024;-71
2022/02/02 02:07:30;;;;;;;6.05;1.55;;;;;;;;;;4972661;28;20451;-68
2022/02/02 02:09:57;;;;;;;5.45;1.50;;;;;;;;;;4972214;28;20379;-67
2022/02/02 02:12:23;;;;;;;4.55;1.85;;;;;;;;;;4972081;28;20514;-68
2022/02/02 02:14:54;;;;;;;2.90;1.85;;;;;;;;;;4972150;28;20501;-67
2022/02/02 02:17:22;;;;;;;3.60;1.88;;;;;;;;;;4955011;28;20386;-67
2022/02/02 02:19:50;;;;;;;3.03;1.50;;;;;;;;;;4954241;28;20041;-67
2022/02/02 02:22:37;;;;;;;5.32;2.05;;;;;;;;;;4972139;28;20040;-67
2022/02/02 02:25:03;;;;;;;3.97;1.60;;;;;;;;;;4973368;28;20386;-67
2022/02/02 02:27:29;;;;;;;4.18;1.70;;;;;;;;;;4971928;28;20341;-68
2022/02/02 02:56:28;;;;;;;4.55;1.92;;;;;;;;;;4971602;28;20478;-68
2022/02/02 03:02:19;;;;;;;2.38;1.52;;;;;;;;;;4971246;28;20455;-67
2022/02/02 03:35:13;;;;;;;2.75;1.88;;;;;;;;;;4952873;28;20107;-68
2022/02/02 04:02:42;;;;;;;2.35;1.67;;;;;;;;;;4921232;28;20574;-67
2022/02/02 04:07:51;;;;;;;3.33;1.42;;;;;;;;;;4949425;28;20123;-67
2022/02/02 04:10:17;;;;;;;3.90;1.85;;;;;;;;;;4949516;28;20339;-67
2022/02/02 04:12:53;;;;;;;4.55;1.73;;;;;;;;;;4945691;28;20376;-67
2022/02/02 04:54:29;;;;;;;3.58;1.67;;;;;;;;;;4866046;28;20127;-68
2022/02/02 04:59:10;;;;;;;3.90;2.13;;;;;;;;;;4865428;28;20360;-68
2022/02/02 05:07:06;;;;;;;3.35;1.85;;;;;;;;;;4865090;28;20476;-67
2022/02/02 05:09:57;;;;;;;6.53;2.20;;;;;;;;;;4865477;28;20503;-68
2022/02/02 05:26:48;;;;;;;4.20;1.98;;;;;;;;;;4865985;28;20476;-69
2022/02/02 05:40:50;;;;;;;3.88;1.60;;;;;;;;;;4863111;28;21335;-71
2022/02/02 05:45:22;;;;;;;5.15;1.63;;;;;;;;;;4865854;28;20619;-69
2022/02/02 05:53:11;;;;;;;3.33;1.52;;;;;;;;;;4867986;28;20399;-69
2022/02/02 05:55:40;;;;;;;2.88;1.52;;;;;;;;;;4866787;28;20496;-68
2022/02/02 05:58:07;;;;;;;2.17;1.45;;;;;;;;;;4864723;28;20746;-68
2022/02/02 06:00:35;;;;;;;2.28;1.30;;;;;;;;;;4869430;28;20465;-71
2022/02/02 06:03:06;;;;;;;1.88;1.40;;;;;;;;;;4868059;28;20489;-68
2022/02/02 06:05:33;;;;;;;3.78;1.38;;;;;;;;;;4864417;28;20602;-73
2022/02/02 06:08:01;;;;;;;2.58;1.50;;;;;;;;;;4864302;28;20501;-74
2022/02/02 06:10:28;;;;;;;2.17;1.65;;;;;;;;;;4865870;28;22538;-71
2022/02/02 06:12:56;;;;;;;3.72;1.73;;;;;;;;;;4863600;28;20516;-73
2022/02/02 06:15:24;;;;;;;3.72;1.95;;;;;;;;;;4862731;28;20473;-69
2022/02/02 06:17:52;;;;;;;2.17;1.13;;;;;;;;;;4864896;28;22021;-73
2022/02/02 06:20:19;;;;;;;2.65;1.63;;;;;;;;;;4867665;28;20460;-68
2022/02/02 06:22:52;;;;;;;2.85;1.33;;;;;;;;;;4866661;28;20589;-73
2022/02/02 06:25:22;;;;;;;3.10;1.67;;;;;;;;;;4862938;28;20057;-69
2022/02/02 06:27:57;;;;;;;3.75;1.55;;;;;;;;;;4865478;28;20404;-70
2022/02/02 06:30:26;;;;;;;3.95;1.67;;;;;;;;;;4866666;28;20479;-69
2022/02/02 06:32:53;;;;;;;1.85;1.30;;;;;;;;;;4866710;28;22354;-68
2022/02/02 06:35:28;;;;;;;5.38;1.70;;;;;;;;;;4860985;28;20096;-69
2022/02/02 06:37:53;;;;;;;2.53;1.08;;;;;;;;;;4848251;28;20081;-72
2022/02/02 06:40:20;;;;;;;2.17;1.30;;;;;;;;;;4866842;28;20828;-70
2022/02/02 06:42:45;;;;;;;7.20;2.35;;;;;;;;;;4865754;28;20472;-68
2022/02/02 06:45:14;;;;;;;3.33;1.38;;;;;;;;;;4863728;28;20562;-69
2022/02/02 06:47:40;;;;;;;3.40;1.33;;;;;;;;;;4864716;28;20494;-69
2022/02/02 06:50:15;;;;;;;6.40;1.75;;;;;;;;;;4866928;28;20416;-69
2022/02/02 06:53:12;;;;;;;3.60;1.60;;;;;;;;;;4863902;28;20519;-69
2022/02/02 06:56:01;;;;;;;3.65;1.08;;;;;;;;;;4865842;28;21927;-70
2022/02/02 06:58:40;;;;;;;5.10;1.33;;;;;;;;;;4865666;28;22184;-69
2022/02/02 07:01:27;;;;;;;2.20;1.38;;;;;;;;;;4864206;28;20469;-69
2022/02/02 07:04:04;;;;;;;3.30;1.00;;;;;;;;;;4864588;28;20468;-72
2022/02/02 07:06:43;;;;;;;2.55;1.38;;;;;;;;;;4847494;28;20453;-69
2022/02/02 07:09:25;;;;;;;2.38;1.45;;;;;;;;;;4866421;28;20445;-69
2022/02/02 07:12:18;;;;;;;3.35;1.13;;;;;;;;;;4864474;28;20137;-72
2022/02/02 07:18:07;;;;;;;4.28;1.70;;;;;;;;;;4829945;28;20507;-69
2022/02/02 07:20:49;;;;;;;3.75;1.77;;;;;;;;;;4869289;28;23130;-69
2022/02/02 07:24:09;;;;;;;2.95;1.20;;;;;;;;;;4865240;28;20330;-69
2022/02/02 07:31:51;;;;;;;5.90;1.50;;;;;;;;;;4865096;28;20042;-73
2022/02/02 07:34:22;;;;;;;2.67;1.30;;;;;;;;;;4858975;28;20058;-69
2022/02/02 07:36:51;;;;;;;2.42;1.40;;;;;;;;;;4862554;28;21581;-69
2022/02/02 07:39:17;;;;;;;2.63;1.30;;;;;;;;;;4863491;28;20479;-69
2022/02/02 07:41:44;;;;;;;4.30;2.22;;;;;;;;;;4863247;28;20049;-74
2022/02/02 07:44:15;;;;;;;6.10;1.45;;;;;;;;;;4862230;28;22836;-69
2022/02/02 07:46:45;;;;;;;4.32;2.15;;;;;;;;;;4865318;28;22846;-69
2022/02/02 07:49:11;;;;;;;3.67;2.00;;;;;;;;;;4862210;28;20455;-74
2022/02/02 07:51:39;;;;;;;4.03;1.60;;;;;;;;;;4864178;28;20427;-68
2022/02/02 07:54:09;;;;;;;3.55;1.70;;;;;;;;;;4862618;28;20061;-70
2022/02/02 07:56:42;;;;;;;3.75;1.52;;;;;;;;;;4863412;28;20456;-69
2022/02/02 07:59:20;;;;;;;3.72;1.63;;;;;;;;;;4864310;28;20433;-69
2022/02/02 08:01:48;;;;;;;2.73;1.83;;;;;;;;;;4865606;28;22600;-72
2022/02/02 08:04:14;;;;;;;2.80;1.60;;;;;;;;;;4866695;28;20488;-68
2022/02/02 08:06:42;;;;;;;4.05;1.58;;;;;;;;;;4865652;28;20431;-70
2022/02/02 08:09:10;;;;;;;3.90;1.85;;;;;;;;;;4864541;28;20427;-69
2022/02/02 08:11:38;;;;;;;4.60;2.60;;;;;;;;;;4866275;28;20384;-69
2022/02/02 08:14:04;;;;;;;2.83;1.42;;;;;;;;;;4865960;28;20502;-74
2022/02/02 08:16:31;;;;;;;4.65;1.67;;;;;;;;;;4864465;28;20487;-71
2022/02/02 08:18:57;;;;;;;5.70;1.67;;;;;;;;;;4866568;28;20441;-69
2022/02/02 08:21:26;;;;;;;2.63;1.50;;;;;;;;;;4862303;28;20476;-74
2022/02/02 08:23:54;;;;;;;4.40;1.88;;;;;;;;;;4866595;28;20057;-71
2022/02/02 08:26:21;;;;;;;5.32;2.17;;;;;;;;;;4864176;28;20132;-74
2022/02/02 08:28:50;;;;;;;5.60;2.08;;;;;;;;;;4863545;28;20743;-74
2022/02/02 08:31:15;;;;;;;6.05;2.33;;;;;;;;;;4862440;28;20465;-69
2022/02/02 08:33:46;;;;;;;5.70;2.00;;;;;;;;;;4865173;28;20459;-72
2022/02/02 08:36:16;;;;;;;6.32;2.03;;;;;;;;;;4863640;28;20081;-74
2022/02/02 08:38:57;;;;;;;4.15;2.30;;;;;;;;;;4861458;28;20503;-70
2022/02/02 08:42:02;;;;;;;5.10;2.17;;;;;;;;;;4864377;28;20527;-74
2022/02/02 08:44:26;;;;;;;5.75;1.80;;;;;;;;;;4865059;28;20372;-73
2022/02/02 08:47:07;;;;;;;6.78;1.90;;;;;;;;;;4863204;28;20411;-70
2022/02/02 08:49:41;;;;;;;4.70;2.00;;;;;;;;;;4867001;28;20177;-70
2022/02/02 08:52:09;;;;;;;4.05;2.20;;;;;;;;;;4868183;28;20449;-71
2022/02/02 08:54:45;;;;;;;6.05;2.35;;;;;;;;;;4864985;28;20514;-70
2022/02/02 08:57:41;;;;;;;7.32;2.17;;;;;;;;;;4867368;28;20453;-70
2022/02/02 09:00:14;;;;;;;6.90;2.35;;;;;;;;;;4866033;28;20763;-69
2022/02/02 09:02:55;;;;;;;4.00;1.80;;;;;;;;;;4867964;28;20461;-73
2022/02/02 09:05:23;;;;;;;3.58;1.90;;;;;;;;;;4866103;28;20547;-69
2022/02/02 09:07:50;;;;;;;4.45;1.55;;;;;;;;;;4869943;28;20431;-70
2022/02/02 09:10:23;;;;;;;6.50;2.40;;;;;;;;;;4865448;28;20456;-69
2022/02/02 09:23:58;;;;;;;3.90;2.22;;;;;;;;;;4867219;28;20065;-70
2022/02/02 09:34:11;;;;;;;4.00;2.20;;;;;;;;;;4863270;28;20054;-70
2022/02/02 09:36:41;;;;;;;3.72;2.33;;;;;;;;;;4865134;28;20503;-70
2022/02/02 09:39:18;;;;;;;7.32;2.45;;;;;;;;;;4866672;28;20464;-72
2022/02/02 09:42:00;;;;;;;4.95;2.22;;;;;;;;;;4864584;28;20062;-70
2022/02/02 09:44:33;;;;;;;4.47;1.85;;;;;;;;;;4862472;28;20468;-70
2022/02/02 09:47:05;;;;;;;3.95;2.00;;;;;;;;;;4866933;28;20057;-70
2022/02/02 09:49:43;;;;;;;4.93;2.17;;;;;;;;;;4862129;28;20526;-70
2022/02/02 09:52:13;;;;;;;3.13;2.10;;;;;;;;;;4862276;28;20459;-70
2022/02/02 10:00:13;;;;;;;3.03;1.88;;;;;;;;;;4863908;28;20469;-74
2022/02/02 10:06:14;;;;;;;3.30;1.70;;;;;;;;;;4828463;28;22316;-71
2022/02/02 10:14:17;;;;;;;5.40;2.30;;;;;;;;;;4864416;28;20456;-70
2022/02/02 10:17:08;;;;;;;3.22;1.70;;;;;;;;;;4864184;28;20084;-74
2022/02/02 10:19:36;;;;;;;5.13;2.40;;;;;;;;;;4863555;28;20062;-70
2022/02/02 10:22:18;;;;;;;5.28;2.22;;;;;;;;;;4860827;28;20583;-71
2022/02/02 10:24:52;;;;;;;8.52;2.13;;;;;;;;;;4862906;28;20046;-72
2022/02/02 10:27:40;;;;;;;6.68;2.67;;;;;;;;;;4867436;28;20080;-70
2022/02/02 10:30:08;;;;;;;5.53;2.00;;;;;;;;;;4867131;28;20412;-71
2022/02/02 10:32:42;;;;;;;4.85;2.53;;;;;;;;;;4862255;28;20452;-70
2022/02/02 10:35:09;;;;;;;5.53;2.50;;;;;;;;;;4863619;28;20380;-70
2022/02/02 10:37:38;;;;;;;5.60;2.08;;;;;;;;;;4861549;28;20492;-75
2022/02/02 10:40:04;;;;;;;4.25;2.03;;;;;;;;;;4865448;28;22906;-72
2022/02/02 10:42:41;;;;;;;5.28;1.95;;;;;;;;;;4862655;28;20448;-70
2022/02/02 10:45:20;;;;;;;3.08;1.65;;;;;;;;;;4861097;28;20545;-71
2022/02/02 10:47:58;;;;;;;5.25;2.58;;;;;;;;;;4865242;28;20041;-70
2022/02/02 10:50:35;;;;;;;4.20;2.15;;;;;;;;;;4862953;28;20376;-70
2022/02/02 10:53:26;;;;;;;5.32;2.28;;;;;;;;;;4861219;28;20465;-71
2022/02/02 11:06:37;;;;;;;4.50;2.45;;;;;;;;;;4868952;28;20396;-71
2022/02/02 11:09:03;;;;;;;5.28;2.47;;;;;;;;;;4863273;28;20492;-71
2022/02/02 11:11:30;;;;;;;4.15;2.10;;;;;;;;;;4861558;28;20464;-70
2022/02/02 11:14:03;;;;;;;4.18;2.25;;;;;;;;;;4864787;28;20361;-70
2022/02/02 11:16:34;;;;;;;4.20;2.47;;;;;;;;;;4863285;28;20132;-69
2022/02/02 11:19:01;;;;;;;5.70;2.45;;;;;;;;;;4864139;28;20476;-74
2022/02/02 11:21:32;;;;;;;6.70;2.42;;;;;;;;;;4863337;28;22518;-69
2022/02/02 11:23:59;;;;;;;4.88;2.30;;;;;;;;;;4863196;28;20587;-70
2022/02/02 11:26:38;;;;;;;5.35;2.05;;;;;;;;;;4864683;28;20451;-71
2022/02/02 11:29:06;;;;;;;11.10;2.78;;;;;;;;;;4864385;28;20050;-73
2022/02/02 11:31:32;;;;;;;5.70;2.42;;;;;;;;;;4864793;28;20583;-70
2022/02/02 11:33:59;;;;;;;5.80;2.20;;;;;;;;;;4861627;28;20391;-70
2022/02/02 11:36:35;;;;;;;7.85;2.85;;;;;;;;;;4865714;28;20472;-74
2022/02/02 11:39:09;;;;;;;6.80;2.28;;;;;;;;;;4867794;28;20065;-70
2022/02/02 11:41:45;;;;;;;6.75;2.15;;;;;;;;;;4860490;28;20546;-70
2022/02/02 11:44:20;;;;;;;5.63;2.30;;;;;;;;;;4864024;28;20220;-70
